createdAt,value
2017-11-24T00:00:39.375Z,49.9
2017-11-24T00:01:41.273Z,49.7
2017-11-24T00:02:42.874Z,49.7
2017-11-24T00:03:44.773Z,50
2017-11-24T00:04:46.396Z,49.8
2017-11-24T00:05:48.012Z,49.8
2017-11-24T00:06:49.633Z,50.1
2017-11-24T00:07:51.531Z,49.9
2017-11-24T00:08:53.429Z,49.7
2017-11-24T00:09:55.031Z,49.7
2017-11-24T00:10:56.651Z,50
2017-11-24T00:11:58.279Z,50
2017-11-24T00:13:00.175Z,50.1
2017-11-24T00:14:01.794Z,50
2017-11-24T00:15:03.397Z,49.8
2017-11-24T00:16:05.296Z,50
2017-11-24T00:17:06.620Z,49.9
2017-11-24T00:18:08.219Z,49.9
2017-11-24T00:19:09.562Z,49.9
2017-11-24T00:20:11.183Z,50.1
2017-11-24T00:21:12.806Z,49.9
2017-11-24T00:22:14.703Z,49.7
2017-11-24T00:23:16.303Z,49.7
2017-11-24T00:24:18.199Z,50.2
2017-11-24T00:25:20.097Z,49.7
2017-11-24T00:26:21.417Z,49.9
2017-11-24T00:27:23.319Z,49.9
2017-11-24T00:28:24.942Z,50.1
2017-11-24T00:29:25.981Z,49.7
2017-11-24T00:30:27.301Z,49.7
2017-11-24T00:31:28.901Z,50
2017-11-24T00:32:30.522Z,50
2017-11-24T00:33:32.121Z,50.1
2017-11-24T00:34:33.442Z,49.9
2017-11-24T00:35:35.343Z,50
2017-11-24T00:36:36.982Z,50
2017-11-24T00:37:38.311Z,50
2017-11-24T00:38:39.631Z,50.1
2017-11-24T00:39:41.526Z,50
2017-11-24T00:40:43.423Z,50
2017-11-24T00:41:45.044Z,50
2017-11-24T00:42:46.942Z,50.1
2017-11-24T00:43:48.875Z,50.1
2017-11-24T00:44:50.491Z,50.2
2017-11-24T00:45:52.113Z,50
2017-11-24T00:46:54.010Z,50.2
2017-11-24T00:47:55.912Z,50.2
2017-11-24T00:48:57.290Z,50
2017-11-24T00:49:59.189Z,50
2017-11-24T00:51:00.786Z,50
2017-11-24T00:52:02.682Z,50
2017-11-24T00:53:04.284Z,50
2017-11-24T00:54:06.181Z,50.3
2017-11-24T00:55:07.804Z,50.3
2017-11-24T00:56:09.702Z,50.2
2017-11-24T00:57:11.300Z,50.1
2017-11-24T00:58:12.918Z,50.3
2017-11-24T00:59:14.813Z,50
2017-11-24T01:00:16.160Z,50.3
2017-11-24T01:01:17.762Z,50.3
2017-11-24T01:02:19.659Z,50.4
2017-11-24T01:03:21.275Z,50.3
2017-11-24T01:04:23.172Z,50
2017-11-24T01:05:24.790Z,50.4
2017-11-24T01:06:26.432Z,50
2017-11-24T01:07:28.051Z,50.4
2017-11-24T01:08:29.948Z,50.4
2017-11-24T01:09:31.874Z,50.1
2017-11-24T01:10:33.198Z,50.4
2017-11-24T01:11:35.093Z,50.4
2017-11-24T01:12:36.717Z,50.3
2017-11-24T01:13:38.336Z,50.4
2017-11-24T01:14:39.658Z,50.2
2017-11-24T01:15:41.558Z,50.2
2017-11-24T01:16:43.454Z,50.3
2017-11-24T01:17:44.498Z,50.4
2017-11-24T01:18:46.427Z,50.5
2017-11-24T01:19:48.324Z,50.6
2017-11-24T01:20:49.949Z,50.1
2017-11-24T01:21:51.547Z,50.2
2017-11-24T01:22:52.893Z,50.2
2017-11-24T01:23:54.512Z,50.2
2017-11-24T01:24:56.410Z,50.1
2017-11-24T01:25:58.313Z,50.5
2017-11-24T01:27:00.239Z,50
2017-11-24T01:28:02.141Z,50.5
2017-11-24T01:29:04.054Z,50.4
2017-11-24T01:30:05.949Z,50.4
2017-11-24T01:31:07.572Z,50.4
2017-11-24T01:32:09.470Z,50.3
2017-11-24T01:33:11.371Z,50.4
2017-11-24T01:34:12.997Z,50.3
2017-11-24T01:35:14.892Z,50.2
2017-11-24T01:36:16.791Z,50.4
2017-11-24T01:37:18.134Z,50.4
2017-11-24T01:38:19.771Z,50.1
2017-11-24T01:39:21.671Z,50.5
2017-11-24T01:40:22.995Z,50.4
2017-11-24T01:41:24.617Z,50.2
2017-11-24T01:42:26.517Z,50.2
2017-11-24T01:43:28.135Z,50.7
2017-11-24T01:44:29.762Z,50.5
2017-11-24T01:45:31.657Z,50.4
2017-11-24T01:46:33.554Z,50.2
2017-11-24T01:47:35.465Z,50.2
2017-11-24T01:48:37.082Z,50.1
2017-11-24T01:49:38.403Z,50.7
2017-11-24T01:50:39.445Z,50.3
2017-11-24T01:51:41.084Z,50.4
2017-11-24T01:52:42.400Z,50.2
2017-11-24T01:53:44.020Z,50.1
2017-11-24T01:54:45.926Z,50.2
2017-11-24T01:55:47.820Z,50.6
2017-11-24T01:56:49.727Z,50
2017-11-24T01:57:51.653Z,50.3
2017-11-24T01:58:53.559Z,50.1
2017-11-24T01:59:55.156Z,50.1
2017-11-24T02:00:56.755Z,50.3
2017-11-24T02:01:58.105Z,50.7
2017-11-24T02:02:59.447Z,50.2
2017-11-24T02:04:01.342Z,50.3
2017-11-24T02:05:03.240Z,50.2
2017-11-24T02:06:04.838Z,50.3
2017-11-24T02:07:06.735Z,50.4
2017-11-24T02:08:08.357Z,50.4
2017-11-24T02:09:10.257Z,50.2
2017-11-24T02:10:11.592Z,50.8
2017-11-24T02:11:13.222Z,50.2
2017-11-24T02:12:15.121Z,50.3
2017-11-24T02:13:16.452Z,50.8
2017-11-24T02:14:18.059Z,50.4
2017-11-24T02:15:19.961Z,50.6
2017-11-24T02:16:21.857Z,50.3
2017-11-24T02:17:23.477Z,50.4
2017-11-24T02:18:24.547Z,50.4
2017-11-24T02:19:26.170Z,50.3
2017-11-24T02:20:28.072Z,50.7
2017-11-24T02:21:29.975Z,50.5
2017-11-24T02:22:31.869Z,50.8
2017-11-24T02:23:33.507Z,50.5
2017-11-24T02:24:35.109Z,50.8
2017-11-24T02:25:37.010Z,50.3
2017-11-24T02:26:38.908Z,50.3
2017-11-24T02:27:40.809Z,50.3
2017-11-24T02:28:42.707Z,50.5
2017-11-24T02:29:44.632Z,50.2
2017-11-24T02:30:46.231Z,50.4
2017-11-24T02:31:47.834Z,50.4
2017-11-24T02:32:49.458Z,50.4
2017-11-24T02:33:50.807Z,50.4
2017-11-24T02:34:52.720Z,50.5
2017-11-24T02:35:54.336Z,50.4
2017-11-24T02:36:55.657Z,50.6
2017-11-24T02:37:57.278Z,50.5
2017-11-24T02:38:58.876Z,50.9
2017-11-24T02:40:00.495Z,50.9
2017-11-24T02:41:02.401Z,50.9
2017-11-24T02:42:03.435Z,50.6
2017-11-24T02:43:05.038Z,50.5
2017-11-24T02:44:06.355Z,50.3
2017-11-24T02:45:07.982Z,50.5
2017-11-24T02:46:09.634Z,50.4
2017-11-24T02:47:11.536Z,50.9
2017-11-24T02:48:13.434Z,50.5
2017-11-24T02:49:14.779Z,50.4
2017-11-24T02:50:16.106Z,50.5
2017-11-24T02:51:18.034Z,50.5
2017-11-24T02:52:19.941Z,50.5
2017-11-24T02:53:21.857Z,50.6
2017-11-24T02:54:23.482Z,50.5
2017-11-24T02:55:25.389Z,50.4
2017-11-24T02:56:27.011Z,50.6
2017-11-24T02:57:28.647Z,50.4
2017-11-24T02:58:30.277Z,50.5
2017-11-24T02:59:32.171Z,50.5
2017-11-24T03:00:34.067Z,50.6
2017-11-24T03:01:35.684Z,50.6
2017-11-24T03:02:37.305Z,50.5
2017-11-24T03:03:38.945Z,50.5
2017-11-24T03:04:40.855Z,50.4
2017-11-24T03:05:42.494Z,50.7
2017-11-24T03:06:43.824Z,50.5
2017-11-24T03:07:45.721Z,50.6
2017-11-24T03:08:47.327Z,50.5
2017-11-24T03:09:48.948Z,50.6
2017-11-24T03:10:50.844Z,50.5
2017-11-24T03:11:51.917Z,50.6
2017-11-24T03:12:53.811Z,50.8
2017-11-24T03:13:55.710Z,50.5
2017-11-24T03:14:56.757Z,50.6
2017-11-24T03:15:58.375Z,50.4
2017-11-24T03:16:59.996Z,50.4
2017-11-24T03:18:01.595Z,50.9
2017-11-24T03:19:02.951Z,50.5
2017-11-24T03:20:04.848Z,50.4
2017-11-24T03:21:06.191Z,50.5
2017-11-24T03:22:08.087Z,50.5
2017-11-24T03:23:09.706Z,50.5
2017-11-24T03:24:11.603Z,50.5
2017-11-24T03:25:13.224Z,51
2017-11-24T03:26:14.845Z,50.5
2017-11-24T03:27:16.742Z,50.9
2017-11-24T03:28:18.638Z,50.5
2017-11-24T03:29:20.237Z,50.5
2017-11-24T03:30:21.850Z,50.5
2017-11-24T03:31:23.750Z,50.6
2017-11-24T03:32:25.350Z,50.6
2017-11-24T03:33:27.248Z,50.6
2017-11-24T03:34:28.595Z,50.6
2017-11-24T03:35:30.216Z,50.6
2017-11-24T03:36:32.138Z,50.8
2017-11-24T03:37:34.039Z,50.7
2017-11-24T03:38:35.383Z,50.6
2017-11-24T03:39:36.706Z,51.1
2017-11-24T03:40:38.328Z,50.9
2017-11-24T03:41:40.226Z,50.9
2017-11-24T03:42:41.854Z,50.8
2017-11-24T03:43:43.482Z,50.8
2017-11-24T03:44:44.826Z,50.8
2017-11-24T03:45:46.724Z,50.7
2017-11-24T03:46:48.622Z,50.7
2017-11-24T03:47:50.522Z,50.8
2017-11-24T03:48:52.145Z,51.1
2017-11-24T03:49:53.467Z,50.7
2017-11-24T03:50:55.088Z,50.8
2017-11-24T03:51:56.413Z,50.7
2017-11-24T03:52:58.312Z,50.6
2017-11-24T03:53:59.930Z,50.5
2017-11-24T03:55:01.828Z,50.7
2017-11-24T03:56:03.449Z,50.8
2017-11-24T03:57:05.348Z,50.6
2017-11-24T03:58:07.245Z,51.2
2017-11-24T03:59:09.144Z,50.7
2017-11-24T04:00:10.763Z,50.6
2017-11-24T04:01:12.361Z,50.5
2017-11-24T04:02:13.981Z,50.9
2017-11-24T04:03:15.580Z,51
2017-11-24T04:04:17.199Z,50.6
2017-11-24T04:05:18.818Z,51
2017-11-24T04:06:20.716Z,50.9
2017-11-24T04:07:22.347Z,50.8
2017-11-24T04:08:23.673Z,50.9
2017-11-24T04:09:25.573Z,51
2017-11-24T04:10:27.474Z,51.2
2017-11-24T04:11:29.375Z,50.8
2017-11-24T04:12:31.273Z,51.3
2017-11-24T04:13:33.171Z,51.1
2017-11-24T04:14:35.071Z,50.8
2017-11-24T04:15:36.972Z,51.3
2017-11-24T04:16:38.870Z,50.9
2017-11-24T04:17:40.767Z,51
2017-11-24T04:18:42.091Z,51.1
2017-11-24T04:19:44.003Z,50.8
2017-11-24T04:20:45.907Z,51.3
2017-11-24T04:21:47.814Z,51
2017-11-24T04:22:49.714Z,50.8
2017-11-24T04:23:51.335Z,51
2017-11-24T04:24:53.234Z,51
2017-11-24T04:25:55.130Z,50.7
2017-11-24T04:26:56.473Z,51.3
2017-11-24T04:27:58.370Z,50.9
2017-11-24T04:28:59.992Z,50.9
2017-11-24T04:30:01.890Z,50.7
2017-11-24T04:31:03.218Z,50.8
2017-11-24T04:32:04.561Z,51
2017-11-24T04:33:06.459Z,51
2017-11-24T04:34:08.353Z,50.6
2017-11-24T04:35:09.699Z,51
2017-11-24T04:36:11.328Z,51
2017-11-24T04:37:12.952Z,51.2
2017-11-24T04:38:14.584Z,50.9
2017-11-24T04:39:16.210Z,50.9
2017-11-24T04:40:17.819Z,50.9
2017-11-24T04:41:19.437Z,50.8
2017-11-24T04:42:20.765Z,50.7
2017-11-24T04:43:22.366Z,50.9
2017-11-24T04:44:23.713Z,50.8
2017-11-24T04:45:25.335Z,51
2017-11-24T04:46:27.258Z,51.3
2017-11-24T04:47:28.862Z,50.8
2017-11-24T04:48:30.776Z,51.4
2017-11-24T04:49:32.399Z,50.9
2017-11-24T04:50:34.298Z,50.6
2017-11-24T04:51:35.340Z,50.8
2017-11-24T04:52:36.947Z,51.4
2017-11-24T04:53:38.562Z,51
2017-11-24T04:54:39.919Z,50.8
2017-11-24T04:55:41.543Z,50.9
2017-11-24T04:56:43.161Z,51.1
2017-11-24T04:57:44.783Z,51.4
2017-11-24T04:58:46.405Z,51.1
2017-11-24T04:59:48.310Z,51.1
2017-11-24T05:00:50.211Z,51.1
2017-11-24T05:01:52.111Z,51.1
2017-11-24T05:02:54.011Z,51.4
2017-11-24T05:03:55.335Z,51.1
2017-11-24T05:04:57.233Z,50.8
2017-11-24T05:05:59.132Z,51.1
2017-11-24T05:07:01.036Z,51
2017-11-24T05:08:02.376Z,51.3
2017-11-24T05:09:04.040Z,51
2017-11-24T05:10:05.641Z,50.6
2017-11-24T05:11:06.996Z,50.6
2017-11-24T05:12:08.338Z,50.6
2017-11-24T05:13:09.960Z,50.6
2017-11-24T05:14:11.857Z,51
2017-11-24T05:15:13.459Z,50.8
2017-11-24T05:16:15.079Z,50.7
2017-11-24T05:17:16.696Z,50.6
2017-11-24T05:18:18.318Z,50.7
2017-11-24T05:19:20.225Z,50.7
2017-11-24T05:20:21.842Z,50.6
2017-11-24T05:21:23.165Z,50.8
2017-11-24T05:22:24.784Z,50.9
2017-11-24T05:23:26.686Z,50.9
2017-11-24T05:24:28.021Z,50.6
2017-11-24T05:25:29.633Z,50.6
2017-11-24T05:26:31.530Z,50.6
2017-11-24T05:27:33.128Z,50.6
2017-11-24T05:28:35.049Z,50.7
2017-11-24T05:29:36.945Z,50.6
2017-11-24T05:30:37.988Z,50.7
2017-11-24T05:31:39.610Z,50.5
2017-11-24T05:32:40.950Z,50.7
2017-11-24T05:33:42.551Z,50.5
2017-11-24T05:34:44.463Z,50.5
2017-11-24T05:35:46.374Z,50.7
2017-11-24T05:36:48.273Z,50.9
2017-11-24T05:37:49.893Z,50.9
2017-11-24T05:38:51.527Z,50.5
2017-11-24T05:39:53.425Z,50.5
2017-11-24T05:40:55.049Z,50.5
2017-11-24T05:41:56.950Z,50.5
2017-11-24T05:42:58.570Z,50.4
2017-11-24T05:44:00.477Z,50.4
2017-11-24T05:45:02.091Z,50.5
2017-11-24T05:46:03.684Z,50.5
2017-11-24T05:47:05.580Z,50.6
2017-11-24T05:48:07.497Z,50.5
2017-11-24T05:49:09.097Z,50.5
2017-11-24T05:50:10.997Z,50.5
2017-11-24T05:51:12.337Z,50.6
2017-11-24T05:52:13.956Z,50.6
2017-11-24T05:53:15.862Z,50.5
2017-11-24T05:54:17.753Z,50.5
2017-11-24T05:55:19.650Z,50.5
2017-11-24T05:56:21.552Z,50.4
2017-11-24T05:57:22.894Z,50.8
2017-11-24T05:58:24.793Z,50.4
2017-11-24T05:59:26.694Z,50.5
2017-11-24T06:00:28.092Z,50.5
2017-11-24T06:01:29.662Z,50.5
2017-11-24T06:02:31.570Z,50.5
2017-11-24T06:03:33.480Z,50.4
2017-11-24T06:04:35.380Z,50.5
2017-11-24T06:05:36.706Z,50.5
2017-11-24T06:06:38.033Z,50.6
2017-11-24T06:07:39.658Z,50.6
2017-11-24T06:08:41.560Z,50.5
2017-11-24T06:09:42.883Z,50.5
2017-11-24T06:10:44.508Z,50.5
2017-11-24T06:11:46.133Z,50.3
2017-11-24T06:12:48.057Z,50.9
2017-11-24T06:13:49.394Z,50.5
2017-11-24T06:14:50.996Z,50.9
2017-11-24T06:15:52.634Z,50.4
2017-11-24T06:16:54.273Z,50.4
2017-11-24T06:17:55.599Z,50.3
2017-11-24T06:18:57.220Z,50.3
2017-11-24T06:19:58.842Z,50.2
2017-11-24T06:21:00.754Z,50.3
2017-11-24T06:22:02.376Z,50.2
2017-11-24T06:23:04.000Z,50.4
2017-11-24T06:24:05.345Z,50.5
2017-11-24T06:25:07.253Z,50.3
2017-11-24T06:26:08.898Z,50.3
2017-11-24T06:27:10.221Z,50.1
2017-11-24T06:28:12.128Z,50.1
2017-11-24T06:29:13.446Z,50.2
2017-11-24T06:30:15.064Z,50.7
2017-11-24T06:31:16.961Z,50.2
2017-11-24T06:32:18.860Z,50
2017-11-24T06:33:20.464Z,50
2017-11-24T06:34:22.089Z,50.2
2017-11-24T06:35:23.982Z,50.1
2017-11-24T06:36:25.882Z,50.1
2017-11-24T06:37:27.784Z,50.3
2017-11-24T06:38:29.409Z,50.7
2017-11-24T06:39:31.306Z,50.2
2017-11-24T06:40:32.930Z,50.3
2017-11-24T06:41:34.554Z,50.2
2017-11-24T06:42:36.172Z,50.2
2017-11-24T06:43:37.799Z,50.3
2017-11-24T06:44:39.421Z,50
2017-11-24T06:45:41.023Z,50.1
2017-11-24T06:46:42.362Z,50
2017-11-24T06:47:43.985Z,50.1
2017-11-24T06:48:45.608Z,50.1
2017-11-24T06:49:46.958Z,50.5
2017-11-24T06:50:48.882Z,50.1
2017-11-24T06:51:50.511Z,50
2017-11-24T06:52:52.132Z,50
2017-11-24T06:53:53.735Z,50.2
2017-11-24T06:54:55.352Z,50.1
2017-11-24T06:55:56.397Z,50.2
2017-11-24T06:56:58.029Z,50.2
2017-11-24T06:57:59.371Z,50.3
2017-11-24T06:59:01.001Z,50.6
2017-11-24T07:00:02.070Z,50.1
2017-11-24T07:01:03.118Z,50.6
2017-11-24T07:02:05.021Z,50.3
2017-11-24T07:03:06.650Z,50.3
2017-11-24T07:04:08.009Z,50.4
2017-11-24T07:05:09.913Z,50.4
2017-11-24T07:06:11.807Z,50.9
2017-11-24T07:07:13.709Z,50.4
2017-11-24T07:08:15.616Z,50.9
2017-11-24T07:09:16.976Z,50.9
2017-11-24T07:10:18.605Z,50.5
2017-11-24T07:11:20.509Z,50.4
2017-11-24T07:12:22.411Z,50.4
2017-11-24T07:13:24.313Z,50.3
2017-11-24T07:14:25.935Z,50.4
2017-11-24T07:15:27.564Z,50.5
2017-11-24T07:16:28.891Z,50.6
2017-11-24T07:17:30.234Z,50.5
2017-11-24T07:18:32.142Z,50.5
2017-11-24T07:19:34.057Z,50.5
2017-11-24T07:20:35.974Z,50.5
2017-11-24T07:21:37.877Z,50.8
2017-11-24T07:22:39.783Z,50.5
2017-11-24T07:23:41.419Z,50.9
2017-11-24T07:24:43.320Z,50.5
2017-11-24T07:25:44.668Z,50.8
2017-11-24T07:26:46.030Z,50.5
2017-11-24T07:27:47.962Z,50.4
2017-11-24T07:28:49.859Z,50.5
2017-11-24T07:29:51.485Z,50.5
2017-11-24T07:30:53.391Z,50.6
2017-11-24T07:31:55.296Z,50.5
2017-11-24T07:32:57.203Z,50.9
2017-11-24T07:33:58.802Z,50.6
2017-11-24T07:35:00.704Z,50.6
2017-11-24T07:36:02.702Z,50.4
2017-11-24T07:37:04.603Z,50.6
2017-11-24T07:38:06.238Z,50.6
2017-11-24T07:39:07.861Z,50.6
2017-11-24T07:40:09.488Z,50.5
2017-11-24T07:41:11.114Z,50.4
2017-11-24T07:42:12.441Z,50.8
2017-11-24T07:43:14.064Z,50.5
2017-11-24T07:44:15.965Z,50.5
2017-11-24T07:45:17.571Z,50.7
2017-11-24T07:46:19.470Z,50.5
2017-11-24T07:47:20.799Z,50.6
2017-11-24T07:48:22.146Z,50.6
2017-11-24T07:49:24.053Z,50.5
2017-11-24T07:50:25.947Z,50.7
2017-11-24T07:51:27.847Z,50.4
2017-11-24T07:52:29.173Z,51.1
2017-11-24T07:53:31.082Z,50.8
2017-11-24T07:54:32.984Z,50.6
2017-11-24T07:55:34.334Z,50.4
2017-11-24T07:56:36.014Z,50.5
2017-11-24T07:57:37.076Z,50.6
2017-11-24T07:58:38.975Z,50.4
2017-11-24T07:59:40.876Z,51
2017-11-24T08:00:42.232Z,50.7
2017-11-24T08:01:44.194Z,50.5
2017-11-24T08:02:46.394Z,50.5
2017-11-24T08:03:47.818Z,50.8
2017-11-24T08:04:49.246Z,50.6
2017-11-24T08:05:50.721Z,50.8
2017-11-24T08:06:52.330Z,50.7
2017-11-24T08:07:53.656Z,50.7
2017-11-24T08:08:55.280Z,50.7
2017-11-24T08:09:56.943Z,50.7
2017-11-24T08:10:58.843Z,50.7
2017-11-24T08:12:00.744Z,50.7
2017-11-24T08:13:02.349Z,50.5
2017-11-24T08:14:03.676Z,50.8
2017-11-24T08:15:05.578Z,50.5
2017-11-24T08:16:07.200Z,50.5
2017-11-24T08:17:09.151Z,50.5
2017-11-24T08:18:10.774Z,50.4
2017-11-24T08:19:12.680Z,50.5
2017-11-24T08:20:14.302Z,50.6
2017-11-24T08:21:16.203Z,50.5
2017-11-24T08:22:18.104Z,50.5
2017-11-24T08:23:19.730Z,50.4
2017-11-24T08:24:21.702Z,50.5
2017-11-24T08:25:23.468Z,50.4
2017-11-24T08:26:24.820Z,50.4
2017-11-24T08:27:26.151Z,50.5
2017-11-24T08:28:28.052Z,50.5
2017-11-24T08:29:29.954Z,50.5
2017-11-24T08:30:31.554Z,50.4
2017-11-24T08:31:33.450Z,50.5
2017-11-24T08:32:35.354Z,50.7
2017-11-24T08:33:37.254Z,50.4
2017-11-24T08:34:38.589Z,50.6
2017-11-24T08:35:39.912Z,50.5
2017-11-24T08:36:41.826Z,51
2017-11-24T08:37:43.452Z,50.9
2017-11-24T08:38:45.077Z,51
2017-11-24T08:39:46.701Z,50.8
2017-11-24T08:40:48.027Z,50.6
2017-11-24T08:41:49.927Z,50.6
2017-11-24T08:42:51.546Z,50.6
2017-11-24T08:43:53.170Z,50.6
2017-11-24T08:44:55.075Z,50.6
2017-11-24T08:45:56.702Z,50.6
2017-11-24T08:46:58.034Z,50.6
2017-11-24T08:47:59.935Z,50.7
2017-11-24T08:49:01.840Z,50.6
2017-11-24T08:50:03.742Z,51
2017-11-24T08:51:05.642Z,50.6
2017-11-24T08:52:06.986Z,50.6
2017-11-24T08:53:08.888Z,51.1
2017-11-24T08:54:10.219Z,50.7
2017-11-24T08:55:11.844Z,50.8
2017-11-24T08:56:13.744Z,50.7
2017-11-24T08:57:15.089Z,50.8
2017-11-24T08:58:16.763Z,50.7
2017-11-24T08:59:18.660Z,50.7
2017-11-24T09:00:20.559Z,50.7
2017-11-24T09:01:22.455Z,50.7
2017-11-24T09:02:24.077Z,50.7
2017-11-24T09:03:25.975Z,51.3
2017-11-24T09:04:27.593Z,50.7
2017-11-24T09:05:29.496Z,51.2
2017-11-24T09:06:31.398Z,50.7
2017-11-24T09:07:33.298Z,50.6
2017-11-24T09:08:34.928Z,50.6
2017-11-24T09:09:36.247Z,50.8
2017-11-24T09:10:37.847Z,50.7
2017-11-24T09:11:39.477Z,50.7
2017-11-24T09:12:41.093Z,50.7
2017-11-24T09:13:42.714Z,50.7
2017-11-24T09:14:44.613Z,50.6
2017-11-24T09:15:46.241Z,50.7
2017-11-24T09:16:47.568Z,50.6
2017-11-24T09:17:49.467Z,51.1
2017-11-24T09:18:50.792Z,50.9
2017-11-24T09:19:52.140Z,51
2017-11-24T09:20:54.041Z,51.3
2017-11-24T09:21:55.947Z,50.8
2017-11-24T09:22:57.291Z,51
2017-11-24T09:23:58.616Z,51
2017-11-24T09:25:00.219Z,50.9
2017-11-24T09:26:01.840Z,51.4
2017-11-24T09:27:03.467Z,50.9
2017-11-24T09:28:04.812Z,51
2017-11-24T09:29:06.159Z,51.4
2017-11-24T09:30:07.487Z,50.7
2017-11-24T09:31:09.089Z,51.1
2017-11-24T09:32:10.692Z,51.1
2017-11-24T09:33:12.018Z,51.4
2017-11-24T09:34:13.360Z,51
2017-11-24T09:35:15.256Z,51.3
2017-11-24T09:36:16.604Z,51.1
2017-11-24T09:37:18.248Z,50.9
2017-11-24T09:38:20.144Z,51.1
2017-11-24T09:39:22.045Z,50.8
2017-11-24T09:40:23.125Z,50.8
2017-11-24T09:41:24.744Z,50.8
2017-11-24T09:42:26.380Z,50.9
2017-11-24T09:43:27.994Z,51
2017-11-24T09:44:29.594Z,50.8
2017-11-24T09:45:31.199Z,50.9
2017-11-24T09:46:33.097Z,50.9
2017-11-24T09:47:35.003Z,51.2
2017-11-24T09:48:36.625Z,51.2
2017-11-24T09:49:38.294Z,51.4
2017-11-24T09:50:40.192Z,50.8
2017-11-24T09:51:41.812Z,51.1
2017-11-24T09:52:43.709Z,51.1
2017-11-24T09:53:45.609Z,51
2017-11-24T09:54:47.254Z,51
2017-11-24T09:55:49.156Z,51
2017-11-24T09:56:50.479Z,51.1
2017-11-24T09:57:52.380Z,51.1
2017-11-24T09:58:54.281Z,50.9
2017-11-24T09:59:55.626Z,51.3
2017-11-24T10:00:56.684Z,51
2017-11-24T10:01:58.357Z,51
2017-11-24T10:02:59.410Z,51.3
2017-11-24T10:04:01.033Z,50.9
2017-11-24T10:05:02.163Z,51
2017-11-24T10:06:03.544Z,51
2017-11-24T10:07:05.455Z,50.9
2017-11-24T10:08:07.081Z,50.8
2017-11-24T10:09:08.711Z,51
2017-11-24T10:10:10.059Z,51.2
2017-11-24T10:11:11.383Z,51.1
2017-11-24T10:12:12.733Z,51
2017-11-24T10:13:14.085Z,50.5
2017-11-24T10:14:15.708Z,50.9
2017-11-24T10:15:17.606Z,50.9
2017-11-24T10:16:18.937Z,50.9
2017-11-24T10:17:20.260Z,50.6
2017-11-24T10:18:21.861Z,51.3
2017-11-24T10:19:23.204Z,51.3
2017-11-24T10:20:25.106Z,51
2017-11-24T10:21:27.006Z,50.9
2017-11-24T10:22:28.326Z,51.7
2017-11-24T10:23:29.938Z,51.2
2017-11-24T10:24:31.274Z,50.9
2017-11-24T10:25:33.051Z,51.4
2017-11-24T10:26:35.082Z,51
2017-11-24T10:27:36.411Z,50.9
2017-11-24T10:28:38.032Z,50.8
2017-11-24T10:29:39.351Z,51
2017-11-24T10:30:40.976Z,50.9
2017-11-24T10:31:42.581Z,50.9
2017-11-24T10:32:44.489Z,51
2017-11-24T10:33:46.110Z,50.9
2017-11-24T10:34:48.013Z,51
2017-11-24T10:35:49.633Z,51
2017-11-24T10:36:51.531Z,51
2017-11-24T10:37:52.881Z,50.9
2017-11-24T10:38:54.777Z,51.4
2017-11-24T10:39:56.111Z,50.9
2017-11-24T10:40:57.729Z,50.9
2017-11-24T10:41:59.646Z,51
2017-11-24T10:43:00.968Z,51.4
2017-11-24T10:44:02.595Z,51.1
2017-11-24T10:45:03.942Z,51.4
2017-11-24T10:46:05.271Z,51
2017-11-24T10:47:06.040Z,51
2017-11-24T10:48:07.375Z,50.9
2017-11-24T10:49:08.992Z,50.9
2017-11-24T10:50:10.894Z,51
2017-11-24T10:51:12.517Z,51
2017-11-24T10:52:14.466Z,51.6
2017-11-24T10:53:15.467Z,51
2017-11-24T10:54:17.093Z,50.9
2017-11-24T10:55:18.713Z,50.9
2017-11-24T10:56:20.342Z,51
2017-11-24T10:57:22.241Z,51
2017-11-24T10:58:23.862Z,50.9
2017-11-24T10:59:25.765Z,51.2
2017-11-24T11:00:27.407Z,51.2
2017-11-24T11:01:29.308Z,51.6
2017-11-24T11:02:30.634Z,51.2
2017-11-24T11:03:32.258Z,51.2
2017-11-24T11:04:33.884Z,51.9
2017-11-24T11:05:35.502Z,51.5
2017-11-24T11:06:37.131Z,51.7
2017-11-24T11:07:38.735Z,51.5
2017-11-24T11:08:40.078Z,51.5
2017-11-24T11:09:41.704Z,51.6
2017-11-24T11:10:43.026Z,51.5
2017-11-24T11:11:44.928Z,51.6
2017-11-24T11:12:46.827Z,51.8
2017-11-24T11:13:48.734Z,51.5
2017-11-24T11:14:50.357Z,51.6
2017-11-24T11:15:51.676Z,51.7
2017-11-24T11:16:53.298Z,52
2017-11-24T11:17:54.923Z,51.6
2017-11-24T11:18:56.273Z,52.3
2017-11-24T11:19:57.896Z,51.6
2017-11-24T11:20:59.518Z,52.4
2017-11-24T11:22:01.143Z,51.8
2017-11-24T11:23:03.056Z,51.8
2017-11-24T11:24:04.958Z,52.5
2017-11-24T11:25:06.285Z,51.8
2017-11-24T11:26:08.185Z,51.8
2017-11-24T11:27:09.809Z,51.8
2017-11-24T11:28:11.712Z,51.8
2017-11-24T11:29:13.055Z,52.3
2017-11-24T11:30:14.385Z,51.8
2017-11-24T11:31:16.290Z,51.8
2017-11-24T11:32:17.630Z,51.8
2017-11-24T11:33:19.228Z,51.8
2017-11-24T11:34:20.853Z,51.9
2017-11-24T11:35:22.475Z,51.9
2017-11-24T11:36:23.810Z,52.3
2017-11-24T11:37:25.709Z,52.4
2017-11-24T11:38:27.031Z,51.7
2017-11-24T11:39:28.658Z,51.9
2017-11-24T11:40:30.280Z,51.9
2017-11-24T11:41:31.906Z,52.5
2017-11-24T11:42:33.801Z,51.9
2017-11-24T11:43:35.428Z,52.3
2017-11-24T11:44:37.054Z,51.8
2017-11-24T11:45:38.677Z,51.8
2017-11-24T11:46:40.293Z,51.8
2017-11-24T11:47:41.620Z,51.8
2017-11-24T11:48:43.520Z,51.8
2017-11-24T11:49:44.846Z,51.8
2017-11-24T11:50:46.796Z,51.8
2017-11-24T11:51:48.716Z,51.8
2017-11-24T11:52:50.334Z,52.1
2017-11-24T11:53:51.683Z,51.6
2017-11-24T11:54:53.580Z,51.8
2017-11-24T11:55:54.920Z,51.6
2017-11-24T11:56:55.992Z,51.6
2017-11-24T11:57:57.614Z,51.8
2017-11-24T11:58:58.960Z,51.8
2017-11-24T12:00:00.282Z,51.8
2017-11-24T12:01:01.608Z,51.7
2017-11-24T12:02:03.507Z,51.5
2017-11-24T12:03:05.451Z,51.6
2017-11-24T12:04:07.347Z,51.6
2017-11-24T12:05:08.975Z,51.6
2017-11-24T12:06:10.873Z,52.1
2017-11-24T12:07:12.228Z,51.6
2017-11-24T12:08:13.569Z,52
2017-11-24T12:09:15.472Z,51.6
2017-11-24T12:10:17.072Z,51.7
2017-11-24T12:11:19.030Z,51.7
2017-11-24T12:12:20.375Z,51.7
2017-11-24T12:13:22.272Z,51.6
2017-11-24T12:14:23.597Z,51.7
2017-11-24T12:15:25.500Z,51.8
2017-11-24T12:16:27.498Z,51.6
2017-11-24T12:17:28.850Z,51.4
2017-11-24T12:18:30.173Z,51.5
2017-11-24T12:19:31.796Z,51.8
2017-11-24T12:20:33.693Z,51.7
2017-11-24T12:21:35.301Z,51.5
2017-11-24T12:22:36.934Z,51.8
2017-11-24T12:23:38.590Z,51.8
2017-11-24T12:24:39.637Z,51.7
2017-11-24T12:25:41.292Z,51.8
2017-11-24T12:26:42.963Z,51.6
2017-11-24T12:27:44.289Z,51.5
2017-11-24T12:28:46.189Z,51.9
2017-11-24T12:29:47.239Z,51.6
2017-11-24T12:30:49.139Z,51.6
2017-11-24T12:31:50.465Z,51.6
2017-11-24T12:32:51.808Z,51.7
2017-11-24T12:33:53.713Z,51.8
2017-11-24T12:34:55.032Z,51.9
2017-11-24T12:35:56.085Z,51.8
2017-11-24T12:36:57.708Z,51.8
2017-11-24T12:37:59.060Z,51.8
2017-11-24T12:39:00.680Z,51.9
2017-11-24T12:40:01.999Z,52.3
2017-11-24T12:41:03.634Z,51.9
2017-11-24T12:42:04.980Z,51.8
2017-11-24T12:43:06.311Z,51.7
2017-11-24T12:44:08.216Z,52.1
2017-11-24T12:45:09.541Z,51.6
2017-11-24T12:46:11.441Z,51.8
2017-11-24T12:47:13.343Z,51.7
2017-11-24T12:48:14.388Z,52
2017-11-24T12:49:16.288Z,52.5
2017-11-24T12:50:17.911Z,51.9
2017-11-24T12:51:18.684Z,51.7
2017-11-24T12:52:20.311Z,51.7
2017-11-24T12:53:21.653Z,51.9
2017-11-24T12:54:22.977Z,51.8
2017-11-24T12:55:24.597Z,51.8
2017-11-24T12:56:25.918Z,51.7
2017-11-24T12:57:27.821Z,51.7
2017-11-24T12:58:28.891Z,51.8
2017-11-24T12:59:30.238Z,51.7
2017-11-24T13:00:32.133Z,51.9
2017-11-24T13:01:33.756Z,52.2
2017-11-24T13:02:35.657Z,51.7
2017-11-24T13:03:37.558Z,52.2
2017-11-24T13:04:39.183Z,51.9
2017-11-24T13:05:40.871Z,51.8
2017-11-24T13:06:42.485Z,51.8
2017-11-24T13:07:44.106Z,51.7
2017-11-24T13:08:45.705Z,51.8
2017-11-24T13:09:47.610Z,51.8
2017-11-24T13:10:49.227Z,51.7
2017-11-24T13:11:50.857Z,51.7
2017-11-24T13:12:52.204Z,51.7
2017-11-24T13:13:53.834Z,51.8
2017-11-24T13:14:55.458Z,51.8
2017-11-24T13:15:57.362Z,51.8
2017-11-24T13:16:59.261Z,52.2
2017-11-24T13:18:00.880Z,52.2
2017-11-24T13:19:02.807Z,51.8
2017-11-24T13:20:04.706Z,52.1
2017-11-24T13:21:06.601Z,51.8
2017-11-24T13:22:07.925Z,51.8
2017-11-24T13:23:09.527Z,52.3
2017-11-24T13:24:11.426Z,52.2
2017-11-24T13:25:13.024Z,51.8
2017-11-24T13:26:14.922Z,51.6
2017-11-24T13:27:16.826Z,52.3
2017-11-24T13:28:18.455Z,51.8
2017-11-24T13:29:20.353Z,51.8
2017-11-24T13:30:22.256Z,51.7
2017-11-24T13:31:23.577Z,51.9
2017-11-24T13:32:25.478Z,51.9
2017-11-24T13:33:27.371Z,51.5
2017-11-24T13:34:28.998Z,51.5
2017-11-24T13:35:30.622Z,51.7
2017-11-24T13:36:32.519Z,51.7
2017-11-24T13:37:34.428Z,51.6
2017-11-24T13:38:36.324Z,51.7
2017-11-24T13:39:37.927Z,51.7
2017-11-24T13:40:38.973Z,51.5
2017-11-24T13:41:40.055Z,51.6
2017-11-24T13:42:41.690Z,51.4
2017-11-24T13:43:43.588Z,51.7
2017-11-24T13:44:44.638Z,51.6
2017-11-24T13:45:46.264Z,52
2017-11-24T13:46:47.864Z,51.7